createdAt,value
2019-01-30T00:00:43.329Z,97.00
2019-01-30T00:03:12.266Z,97.10
2019-01-30T00:05:41.112Z,97.10
2019-01-30T00:08:10.034Z,97.00
2019-01-30T00:10:38.916Z,97.20
2019-01-30T00:13:07.875Z,97.00
2019-01-30T00:15:36.851Z,96.80
2019-01-30T00:18:06.346Z,96.90
2019-01-30T00:20:35.215Z,96.90
2019-01-30T00:23:04.154Z,96.80
2019-01-30T00:25:33.091Z,97.00
2019-01-30T00:28:02.079Z,97.10
2019-01-30T00:30:31.271Z,97.00
2019-01-30T00:33:00.383Z,97.00
2019-01-30T00:35:29.267Z,97.00
2019-01-30T00:37:58.569Z,97.30
2019-01-30T00:40:27.682Z,97.00
2019-01-30T00:42:56.542Z,97.10
2019-01-30T00:45:25.519Z,97.10
2019-01-30T00:47:54.435Z,97.40
2019-01-30T00:50:23.399Z,97.40
2019-01-30T00:52:55.355Z,97.40
2019-01-30T00:55:24.258Z,97.20
2019-01-30T00:57:53.244Z,97.40
2019-01-30T01:00:23.243Z,97.40
2019-01-30T01:02:52.196Z,97.60
2019-01-30T01:05:21.297Z,97.90
2019-01-30T01:07:50.648Z,97.80
2019-01-30T01:10:20.000Z,97.60
2019-01-30T01:12:49.073Z,97.50
2019-01-30T01:15:18.044Z,97.40
2019-01-30T01:17:47.022Z,97.40
2019-01-30T01:20:16.058Z,97.40
2019-01-30T01:22:44.950Z,97.10
2019-01-30T01:25:15.848Z,97.30
2019-01-30T01:27:45.187Z,97.40
2019-01-30T01:30:24.825Z,97.40
2019-01-30T01:32:47.756Z,97.50
2019-01-30T01:35:16.672Z,97.40
2019-01-30T01:37:45.766Z,97.40
2019-01-30T01:40:15.284Z,97.50
2019-01-30T01:42:44.247Z,97.60
2019-01-30T01:45:18.549Z,97.50
2019-01-30T01:47:47.473Z,97.30
2019-01-30T01:50:19.562Z,97.40
2019-01-30T01:52:48.552Z,97.40
2019-01-30T01:55:17.511Z,97.40
2019-01-30T01:57:46.378Z,97.40
2019-01-30T02:00:20.488Z,97.50
2019-01-30T02:02:49.400Z,97.50
2019-01-30T02:05:20.126Z,97.50
2019-01-30T02:07:49.126Z,97.60
2019-01-30T02:10:27.080Z,97.50
2019-01-30T02:12:56.145Z,97.60
2019-01-30T02:15:25.207Z,97.60
2019-01-30T02:17:54.527Z,97.60
2019-01-30T02:20:26.231Z,97.80
2019-01-30T02:22:55.241Z,97.70
2019-01-30T02:25:24.263Z,97.70
2019-01-30T02:27:53.883Z,97.80
2019-01-30T02:30:25.549Z,97.70
2019-01-30T02:32:55.190Z,97.60
2019-01-30T02:35:25.436Z,97.60
2019-01-30T02:37:54.684Z,97.70
2019-01-30T02:40:26.214Z,97.70
2019-01-30T02:42:55.524Z,97.70
2019-01-30T02:45:25.929Z,97.70
2019-01-30T02:47:55.221Z,97.70
2019-01-30T02:50:24.256Z,97.60
2019-01-30T02:52:53.368Z,97.60
2019-01-30T02:55:22.886Z,97.40
2019-01-30T02:57:51.968Z,97.40
2019-01-30T03:00:24.362Z,97.40
2019-01-30T03:02:53.351Z,97.50
2019-01-30T03:05:22.411Z,97.50
2019-01-30T03:07:51.416Z,97.50
2019-01-30T03:10:20.441Z,97.40
2019-01-30T03:12:49.470Z,97.50
2019-01-30T03:15:18.655Z,97.40
2019-01-30T03:17:47.779Z,97.50
2019-01-30T03:20:24.817Z,97.50
2019-01-30T03:22:53.858Z,97.50
2019-01-30T03:25:23.861Z,97.70
2019-01-30T03:27:52.910Z,97.50
2019-01-30T03:30:26.984Z,97.60
2019-01-30T03:32:56.011Z,97.60
2019-01-30T03:35:25.090Z,97.60
2019-01-30T03:37:54.008Z,97.60
2019-01-30T03:40:23.544Z,97.60
2019-01-30T03:42:52.559Z,97.40
2019-01-30T03:45:22.476Z,97.40
2019-01-30T03:47:51.632Z,97.40
2019-01-30T03:50:20.660Z,97.30
2019-01-30T03:52:49.702Z,97.40
2019-01-30T03:55:18.828Z,97.50
2019-01-30T03:57:48.042Z,97.90
2019-01-30T04:00:19.655Z,97.70
2019-01-30T04:02:48.720Z,97.60
2019-01-30T04:05:17.737Z,97.60
2019-01-30T04:07:46.801Z,97.30
2019-01-30T04:10:18.323Z,97.50
2019-01-30T04:12:47.315Z,97.50
2019-01-30T04:15:16.438Z,97.40
2019-01-30T04:17:45.853Z,97.30
2019-01-30T04:20:16.687Z,97.30
2019-01-30T04:22:45.696Z,97.30
2019-01-30T04:25:14.805Z,97.40
2019-01-30T04:27:44.140Z,97.40
2019-01-30T04:30:16.144Z,97.60
2019-01-30T04:32:45.161Z,97.60
2019-01-30T04:35:14.202Z,97.50
2019-01-30T04:37:43.233Z,97.40
2019-01-30T04:40:14.849Z,97.40
2019-01-30T04:42:44.412Z,97.50
2019-01-30T04:45:16.319Z,97.40
2019-01-30T04:47:45.404Z,97.60
2019-01-30T04:50:14.568Z,97.70
2019-01-30T04:52:43.649Z,97.60
2019-01-30T04:55:12.760Z,97.60
2019-01-30T04:57:41.947Z,97.60
2019-01-30T05:00:13.166Z,97.60
2019-01-30T05:02:42.255Z,97.40
2019-01-30T05:05:11.621Z,97.50
2019-01-30T05:07:40.609Z,97.50
2019-01-30T05:10:10.816Z,97.50
2019-01-30T05:12:39.869Z,97.40
2019-01-30T05:15:12.057Z,97.60
2019-01-30T05:17:41.045Z,97.60
2019-01-30T05:20:11.456Z,97.50
2019-01-30T05:22:40.464Z,97.30
2019-01-30T05:25:09.676Z,97.20
2019-01-30T05:27:38.785Z,97.20
2019-01-30T05:30:12.197Z,97.40
2019-01-30T05:32:41.320Z,97.40
2019-01-30T05:35:13.133Z,97.60
2019-01-30T05:37:42.117Z,97.60
2019-01-30T05:40:13.425Z,97.60
2019-01-30T05:42:42.450Z,97.60
2019-01-30T05:45:14.331Z,97.50
2019-01-30T05:47:45.598Z,97.50
2019-01-30T05:50:14.811Z,97.60
2019-01-30T05:52:43.939Z,97.60
2019-01-30T05:55:13.584Z,97.40
2019-01-30T05:57:42.614Z,97.40
2019-01-30T06:00:34.140Z,97.30
2019-01-30T06:03:03.538Z,97.20
2019-01-30T06:05:32.546Z,97.10
2019-01-30T06:08:01.620Z,97.30
2019-01-30T06:10:30.698Z,97.00
2019-01-30T06:12:59.589Z,97.10
2019-01-30T06:15:28.653Z,96.90
2019-01-30T06:17:57.734Z,96.60
2019-01-30T06:20:27.660Z,96.60
2019-01-30T06:22:57.057Z,96.50
2019-01-30T06:25:26.086Z,96.40
2019-01-30T06:27:55.173Z,96.30
2019-01-30T06:30:24.335Z,96.00
2019-01-30T06:32:53.456Z,96.10
2019-01-30T06:35:22.481Z,96.10
2019-01-30T06:37:51.697Z,96.10
2019-01-30T06:40:29.472Z,96.00
2019-01-30T06:42:58.676Z,95.90
2019-01-30T06:45:27.766Z,96.10
2019-01-30T06:47:56.768Z,95.90
2019-01-30T06:50:25.866Z,95.60
2019-01-30T06:52:55.006Z,95.40
2019-01-30T06:55:24.025Z,95.60
2019-01-30T06:57:53.096Z,95.50
2019-01-30T07:00:25.021Z,95.40
2019-01-30T07:02:54.605Z,95.50
2019-01-30T07:05:23.642Z,95.60
2019-01-30T07:07:52.649Z,95.60
2019-01-30T07:10:24.053Z,95.50
2019-01-30T07:12:53.152Z,95.60
2019-01-30T07:15:22.289Z,95.20
2019-01-30T07:17:51.633Z,95.30
2019-01-30T07:20:20.765Z,94.80
2019-01-30T07:22:52.361Z,95.00
2019-01-30T07:25:22.028Z,95.10
2019-01-30T07:27:51.132Z,95.00
2019-01-30T07:30:31.480Z,95.00
2019-01-30T07:33:00.532Z,95.00
2019-01-30T07:35:29.558Z,94.80
2019-01-30T07:37:58.934Z,94.50
2019-01-30T07:40:28.154Z,94.20
2019-01-30T07:42:57.156Z,94.10
2019-01-30T07:45:27.943Z,94.10
2019-01-30T07:47:56.952Z,94.10
2019-01-30T07:50:25.963Z,94.00
2019-01-30T07:52:54.943Z,93.90
2019-01-30T07:55:23.971Z,94.20
2019-01-30T07:57:52.966Z,94.00
2019-01-30T08:00:24.248Z,94.30
2019-01-30T08:02:53.847Z,94.20
2019-01-30T08:05:23.336Z,93.70
2019-01-30T08:07:52.422Z,93.30
2019-01-30T08:10:21.427Z,93.50
2019-01-30T08:12:50.432Z,93.20
2019-01-30T08:15:19.636Z,93.50
2019-01-30T08:17:50.544Z,93.60
2019-01-30T08:20:20.814Z,93.30
2019-01-30T08:22:50.470Z,93.50
2019-01-30T08:25:21.858Z,93.30
2019-01-30T08:27:54.282Z,93.10
2019-01-30T08:30:30.061Z,93.40
2019-01-30T08:33:04.605Z,93.00
2019-01-30T08:35:33.039Z,93.00
2019-01-30T08:38:02.142Z,92.50
2019-01-30T08:40:31.685Z,92.90
2019-01-30T08:43:00.721Z,92.50
2019-01-30T08:45:31.325Z,92.30
2019-01-30T08:48:00.837Z,91.60
2019-01-30T08:50:30.006Z,91.60
2019-01-30T08:52:59.013Z,91.10
2019-01-30T08:55:28.020Z,91.80
2019-01-30T08:57:57.116Z,91.70
2019-01-30T09:00:27.050Z,91.90
2019-01-30T09:02:56.402Z,92.10
2019-01-30T09:05:25.869Z,90.60
2019-01-30T09:07:55.192Z,90.40
2019-01-30T09:10:25.282Z,90.30
2019-01-30T09:12:54.322Z,89.30
2019-01-30T09:15:24.772Z,88.80
2019-01-30T09:17:53.826Z,88.90
2019-01-30T09:20:23.817Z,89.60
2019-01-30T09:22:53.086Z,89.10
2019-01-30T09:25:24.222Z,88.30
2019-01-30T09:27:53.295Z,87.60
2019-01-30T09:30:30.712Z,87.70
2019-01-30T09:32:59.843Z,88.00
2019-01-30T09:35:29.253Z,85.20
2019-01-30T09:37:58.260Z,83.90
2019-01-30T09:40:27.316Z,85.90
2019-01-30T09:42:56.393Z,85.40
2019-01-30T09:45:25.750Z,84.90
2019-01-30T09:47:54.948Z,84.10
2019-01-30T09:50:24.206Z,85.00
2019-01-30T09:52:53.469Z,84.90
2019-01-30T09:55:22.741Z,84.10
2019-01-30T09:57:52.108Z,82.80
2019-01-30T10:00:28.268Z,82.40
2019-01-30T10:02:57.265Z,83.60
2019-01-30T10:05:26.328Z,83.70
2019-01-30T10:07:55.527Z,82.70
2019-01-30T10:10:27.289Z,84.50
2019-01-30T10:12:56.308Z,81.80
2019-01-30T10:15:27.953Z,81.30
2019-01-30T10:17:56.885Z,80.70
2019-01-30T10:20:26.737Z,81.20
2019-01-30T10:22:55.814Z,81.40
2019-01-30T10:25:24.941Z,81.40
2019-01-30T10:27:53.973Z,79.40
2019-01-30T10:30:31.853Z,79.80
2019-01-30T10:33:00.882Z,80.40
2019-01-30T10:35:30.098Z,79.40
2019-01-30T10:37:59.172Z,79.50
2019-01-30T10:40:28.177Z,79.80
2019-01-30T10:42:57.599Z,78.20
2019-01-30T10:45:26.747Z,78.60
2019-01-30T10:47:55.801Z,79.10
2019-01-30T10:50:26.445Z,79.90
2019-01-30T10:52:55.469Z,80.30
2019-01-30T10:55:26.255Z,79.30
2019-01-30T10:57:57.300Z,77.70
2019-01-30T11:00:29.271Z,78.30
2019-01-30T11:02:58.302Z,76.00
2019-01-30T11:05:27.317Z,74.80
2019-01-30T11:07:56.376Z,74.70
2019-01-30T11:10:25.498Z,76.40
2019-01-30T11:12:54.434Z,76.50
2019-01-30T11:15:25.074Z,77.40
2019-01-30T11:17:54.097Z,77.40
2019-01-30T11:20:23.092Z,78.40
2019-01-30T11:22:53.687Z,78.80
2019-01-30T11:25:25.849Z,78.30
2019-01-30T11:27:55.257Z,79.00
2019-01-30T11:30:24.297Z,78.90
2019-01-30T11:32:55.403Z,79.20
2019-01-30T11:35:24.013Z,80.90
2019-01-30T11:37:53.253Z,79.60
2019-01-30T11:40:22.640Z,79.20
2019-01-30T11:42:51.659Z,79.00
2019-01-30T11:45:23.862Z,79.90
2019-01-30T11:47:52.888Z,79.60
2019-01-30T11:50:21.931Z,80.40
2019-01-30T11:52:50.968Z,79.50
2019-01-30T11:55:20.000Z,78.00
2019-01-30T11:57:49.062Z,77.30
2019-01-30T12:00:33.447Z,77.10
2019-01-30T12:03:02.470Z,76.80
2019-01-30T12:05:31.480Z,76.60
2019-01-30T12:08:00.926Z,76.70
2019-01-30T12:10:29.930Z,76.10
2019-01-30T12:12:58.934Z,74.50
2019-01-30T12:15:27.992Z,74.90
2019-01-30T12:17:57.033Z,75.00
2019-01-30T12:20:26.080Z,74.80
2019-01-30T12:22:55.121Z,76.00
2019-01-30T12:25:24.532Z,75.60
2019-01-30T12:27:53.546Z,75.30
2019-01-30T12:30:24.222Z,73.20
2019-01-30T12:32:53.247Z,71.50
2019-01-30T12:35:22.836Z,69.60
2019-01-30T12:37:51.869Z,69.70
2019-01-30T12:40:21.369Z,69.40
2019-01-30T12:42:50.814Z,69.80
2019-01-30T12:45:22.712Z,69.10
2019-01-30T12:47:51.722Z,68.50
2019-01-30T12:50:20.762Z,66.80
2019-01-30T12:52:49.849Z,65.40
2019-01-30T12:55:19.394Z,66.00
2019-01-30T12:57:48.440Z,67.00
2019-01-30T13:00:19.520Z,67.80
2019-01-30T13:02:48.847Z,66.40
2019-01-30T13:05:18.897Z,66.80
2019-01-30T13:07:47.949Z,66.60
2019-01-30T13:10:16.956Z,65.60
2019-01-30T13:12:45.954Z,65.00
2019-01-30T13:15:16.867Z,67.30
2019-01-30T13:17:46.758Z,65.80
2019-01-30T13:20:17.877Z,64.70
2019-01-30T13:22:46.941Z,63.80
2019-01-30T13:25:18.723Z,61.50
2019-01-30T13:27:47.669Z,62.10
2019-01-30T13:30:22.297Z,63.10
2019-01-30T13:32:51.453Z,64.50
2019-01-30T13:35:23.788Z,63.40
2019-01-30T13:37:52.813Z,62.40
2019-01-30T13:40:24.977Z,63.50
2019-01-30T13:42:53.949Z,63.50
2019-01-30T13:45:23.022Z,64.40
2019-01-30T13:47:52.093Z,65.20
2019-01-30T13:50:23.044Z,64.80
2019-01-30T13:52:52.103Z,64.60
2019-01-30T13:55:21.113Z,65.80
2019-01-30T13:57:50.543Z,66.40
2019-01-30T14:00:23.298Z,68.30
2019-01-30T14:02:52.324Z,69.30
2019-01-30T14:05:21.333Z,71.20
2019-01-30T14:07:51.166Z,72.50
2019-01-30T14:10:20.289Z,73.20
2019-01-30T14:12:49.703Z,74.20
2019-01-30T14:15:20.728Z,75.70
2019-01-30T14:17:49.769Z,75.70
2019-01-30T14:20:18.843Z,75.80
2019-01-30T14:22:49.526Z,76.50
2019-01-30T14:25:19.306Z,76.50
2019-01-30T14:27:48.384Z,76.20
2019-01-30T14:30:22.969Z,78.20
2019-01-30T14:32:52.045Z,79.30
2019-01-30T14:35:21.810Z,78.80
2019-01-30T14:37:50.842Z,78.40
2019-01-30T14:40:20.680Z,77.60
2019-01-30T14:42:49.953Z,78.40
2019-01-30T14:45:19.047Z,78.40
2019-01-30T14:47:49.092Z,78.30
2019-01-30T14:50:20.082Z,78.30
2019-01-30T14:52:49.195Z,77.80
2019-01-30T14:55:19.054Z,76.80
2019-01-30T14:57:48.740Z,76.00
2019-01-30T15:00:19.777Z,77.40
2019-01-30T15:02:48.838Z,72.60
2019-01-30T15:05:22.250Z,69.40
2019-01-30T15:07:48.967Z,68.00
2019-01-30T15:10:19.132Z,68.10
2019-01-30T15:12:48.198Z,67.20
2019-01-30T15:15:19.049Z,66.70
2019-01-30T15:17:47.968Z,67.20
2019-01-30T15:20:21.822Z,66.10
2019-01-30T15:22:50.892Z,66.40
2019-01-30T15:25:20.952Z,65.80
2019-01-30T15:27:50.311Z,65.90
2019-01-30T15:30:30.907Z,65.80
2019-01-30T15:32:59.961Z,64.90
2019-01-30T15:35:33.555Z,64.60
2019-01-30T15:38:00.680Z,65.40
2019-01-30T15:40:29.848Z,64.80
2019-01-30T15:42:58.840Z,64.20
2019-01-30T15:45:28.036Z,64.20
2019-01-30T15:47:57.043Z,64.20
2019-01-30T15:50:27.887Z,64.60
2019-01-30T15:52:58.295Z,64.80
2019-01-30T15:55:27.483Z,65.20
2019-01-30T15:58:02.133Z,64.40
2019-01-30T16:00:34.124Z,65.00
2019-01-30T16:03:03.104Z,64.90
2019-01-30T16:05:32.097Z,65.50
2019-01-30T16:08:01.035Z,65.60
2019-01-30T16:10:30.040Z,65.80
2019-01-30T16:12:58.880Z,65.80
2019-01-30T16:15:30.944Z,66.50
2019-01-30T16:17:59.839Z,66.60
2019-01-30T16:20:28.833Z,67.20
2019-01-30T16:22:57.873Z,66.80
2019-01-30T16:25:26.887Z,67.00
2019-01-30T16:27:55.869Z,67.60
2019-01-30T16:30:25.455Z,67.50
2019-01-30T16:32:54.476Z,68.20
2019-01-30T16:35:25.849Z,68.00
2019-01-30T16:37:54.980Z,68.70
2019-01-30T16:40:24.016Z,68.80
2019-01-30T16:42:54.430Z,69.70
2019-01-30T16:45:25.428Z,70.00
2019-01-30T16:47:54.476Z,70.20
2019-01-30T16:50:23.468Z,70.60
2019-01-30T16:52:52.817Z,70.50
2019-01-30T16:55:22.632Z,70.60
2019-01-30T16:57:51.628Z,70.40
2019-01-30T17:00:26.021Z,71.10
2019-01-30T17:02:55.115Z,71.20
2019-01-30T17:05:24.305Z,71.20
2019-01-30T17:07:53.308Z,72.00
2019-01-30T17:10:22.311Z,71.30
2019-01-30T17:12:51.305Z,71.40
2019-01-30T17:15:22.719Z,71.40
2019-01-30T17:17:51.716Z,70.50
2019-01-30T17:20:22.827Z,70.40
2019-01-30T17:22:51.876Z,69.70
2019-01-30T17:25:21.191Z,69.20
2019-01-30T17:27:50.208Z,68.90
2019-01-30T17:30:24.967Z,69.30
2019-01-30T17:32:53.967Z,69.60
2019-01-30T17:35:23.136Z,70.10
2019-01-30T17:37:52.188Z,70.50
2019-01-30T17:40:21.620Z,69.90
2019-01-30T17:42:50.619Z,69.90
2019-01-30T17:45:19.652Z,68.90
2019-01-30T17:47:48.652Z,68.70
2019-01-30T17:50:20.585Z,70.10
2019-01-30T17:52:49.607Z,68.80
2019-01-30T17:55:18.549Z,68.90
2019-01-30T17:57:47.571Z,69.20
2019-01-30T18:00:28.756Z,69.60
2019-01-30T18:02:57.760Z,69.90
2019-01-30T18:05:26.756Z,69.70
2019-01-30T18:07:55.764Z,69.50
2019-01-30T18:10:24.782Z,69.40
2019-01-30T18:12:53.794Z,69.50
2019-01-30T18:15:22.794Z,69.80
2019-01-30T18:17:54.256Z,69.70
2019-01-30T18:20:22.496Z,69.60
2019-01-30T18:22:51.439Z,69.30
2019-01-30T18:25:20.468Z,69.20
2019-01-30T18:27:49.578Z,68.60
2019-01-30T18:30:18.700Z,68.90
2019-01-30T18:32:47.818Z,68.40
2019-01-30T18:35:16.960Z,68.70
2019-01-30T18:37:46.193Z,68.90
2019-01-30T18:40:17.462Z,69.10
2019-01-30T18:42:46.530Z,69.10
2019-01-30T18:45:21.064Z,68.80
2019-01-30T18:47:50.060Z,68.80
2019-01-30T18:50:21.123Z,69.10
2019-01-30T18:52:50.125Z,69.40
2019-01-30T18:55:19.215Z,69.20
2019-01-30T18:57:48.820Z,69.20
2019-01-30T19:00:30.165Z,69.30
2019-01-30T19:03:00.619Z,68.60
2019-01-30T19:05:30.731Z,68.90
2019-01-30T19:07:59.775Z,68.90
2019-01-30T19:10:28.796Z,68.30
2019-01-30T19:12:57.952Z,68.20
2019-01-30T19:15:27.036Z,68.40
2019-01-30T19:17:56.153Z,67.70
2019-01-30T19:20:28.061Z,67.70
2019-01-30T19:22:56.965Z,67.70
2019-01-30T19:25:25.911Z,67.60
2019-01-30T19:27:56.135Z,68.40
2019-01-30T19:30:27.432Z,68.10
2019-01-30T19:32:56.425Z,67.70
2019-01-30T19:35:25.465Z,67.70
2019-01-30T19:37:54.844Z,67.70
2019-01-30T19:40:24.040Z,67.60
2019-01-30T19:42:53.128Z,68.40
2019-01-30T19:45:23.841Z,67.80
2019-01-30T19:47:52.851Z,68.00
2019-01-30T19:50:23.719Z,67.60
2019-01-30T19:52:53.051Z,67.60
2019-01-30T19:55:22.027Z,68.20
2019-01-30T19:57:51.167Z,68.60
2019-01-30T20:00:28.723Z,67.80
2019-01-30T20:02:57.727Z,67.90
2019-01-30T20:05:27.036Z,67.50
2019-01-30T20:07:56.019Z,66.80
2019-01-30T20:10:30.671Z,67.40
2019-01-30T20:12:59.674Z,68.40
2019-01-30T20:15:28.869Z,67.60
2019-01-30T20:17:57.908Z,68.20
2019-01-30T20:20:26.920Z,68.00
2019-01-30T20:22:55.926Z,68.30
2019-01-30T20:25:27.579Z,67.90
2019-01-30T20:27:56.525Z,67.50
2019-01-30T20:30:27.216Z,67.90
2019-01-30T20:32:56.356Z,67.50
2019-01-30T20:35:25.369Z,67.80
2019-01-30T20:37:54.370Z,67.50
2019-01-30T20:40:25.521Z,68.50
2019-01-30T20:42:55.910Z,68.20
2019-01-30T20:45:33.527Z,67.50
2019-01-30T20:47:56.084Z,68.40
2019-01-30T20:50:27.155Z,67.20
2019-01-30T20:52:56.307Z,68.60
2019-01-30T20:55:27.648Z,68.10
2019-01-30T20:57:56.552Z,67.40
2019-01-30T21:00:35.181Z,67.40
2019-01-30T21:03:04.782Z,67.40
2019-01-30T21:05:33.818Z,67.40
2019-01-30T21:08:03.231Z,68.30
2019-01-30T21:10:34.605Z,67.50
2019-01-30T21:13:03.823Z,68.10
2019-01-30T21:15:32.786Z,67.80
2019-01-30T21:18:01.789Z,68.50
2019-01-30T21:20:30.763Z,68.60
2019-01-30T21:22:59.756Z,69.00
2019-01-30T21:25:28.828Z,68.80
2019-01-30T21:27:57.747Z,68.60
2019-01-30T21:30:29.056Z,68.40
2019-01-30T21:32:58.043Z,68.80
2019-01-30T21:35:27.048Z,69.10
2019-01-30T21:37:56.053Z,69.80
2019-01-30T21:40:25.035Z,69.80
2019-01-30T21:42:54.037Z,70.10
2019-01-30T21:45:23.925Z,70.30
2019-01-30T21:47:52.859Z,69.70
2019-01-30T21:50:21.904Z,69.80
2019-01-30T21:52:50.991Z,69.90
2019-01-30T21:55:22.448Z,70.30
2019-01-30T21:57:51.568Z,70.90
2019-01-30T22:00:25.168Z,70.50
2019-01-30T22:02:54.199Z,71.10
2019-01-30T22:05:23.288Z,72.00
2019-01-30T22:08:00.600Z,71.60
2019-01-30T22:10:25.138Z,71.50
2019-01-30T22:12:54.384Z,72.10
2019-01-30T22:15:23.506Z,73.60
2019-01-30T22:17:52.520Z,73.00
2019-01-30T22:20:23.539Z,73.20
2019-01-30T22:22:52.660Z,73.50
2019-01-30T22:25:21.975Z,73.90
2019-01-30T22:27:51.030Z,74.20
2019-01-30T22:30:31.481Z,74.50
2019-01-30T22:33:00.508Z,73.50
2019-01-30T22:35:29.557Z,73.90
2019-01-30T22:37:58.568Z,74.00
2019-01-30T22:40:27.589Z,73.80
2019-01-30T22:42:56.681Z,73.80
2019-01-30T22:45:25.684Z,74.00
2019-01-30T22:47:54.672Z,74.10
2019-01-30T22:50:23.786Z,74.60
2019-01-30T22:52:52.751Z,75.20
2019-01-30T22:55:22.817Z,75.60
2019-01-30T22:57:52.083Z,76.10
2019-01-30T23:00:30.837Z,76.40
2019-01-30T23:03:00.018Z,76.60
2019-01-30T23:06:06.176Z,76.80
2019-01-30T23:08:45.868Z,77.30
2019-01-30T23:12:04.324Z,77.60
2019-01-30T23:15:04.751Z,77.70
2019-01-30T23:18:17.956Z,77.70
2019-01-30T23:20:54.900Z,77.90
2019-01-30T23:23:54.246Z,77.90
2019-01-30T23:26:29.204Z,78.20
2019-01-30T23:29:33.467Z,78.40
2019-01-30T23:32:33.268Z,78.60
2019-01-30T23:35:23.742Z,79.00
2019-01-30T23:38:15.905Z,78.80
2019-01-30T23:41:25.516Z,79.20
2019-01-30T23:44:48.478Z,79.50
2019-01-30T23:47:56.038Z,79.50
2019-01-30T23:51:12.195Z,79.60
2019-01-30T23:54:21.762Z,81.10
2019-01-30T23:57:29.347Z,81.20
